sensor_id;sensor_type;location;lat;lon;timestamp;pressure;altitude;pressure_sealevel;temperature;humidity
11349;BME280;5729;43.570;27.826;2023-01-15T00:02:03;99838.94;;;3.96;100.00
11349;BME280;5729;43.570;27.826;2023-01-15T00:04:29;99841.59;;;3.96;100.00
11349;BME280;5729;43.570;27.826;2023-01-15T00:06:54;99835.28;;;3.92;100.00
11349;BME280;5729;43.570;27.826;2023-01-15T00:09:20;99843.16;;;3.84;100.00
11349;BME280;5729;43.570;27.826;2023-01-15T00:11:45;99835.38;;;3.87;100.00
11349;BME280;5729;43.570;27.826;2023-01-15T00:14:10;99837.53;;;3.72;100.00
11349;BME280;5729;43.570;27.826;2023-01-15T00:16:36;99852.16;;;3.88;100.00
11349;BME280;5729;43.570;27.826;2023-01-15T00:19:04;99846.75;;;3.93;100.00
11349;BME280;5729;43.570;27.826;2023-01-15T00:21:32;99856.34;;;3.94;100.00
11349;BME280;5729;43.570;27.826;2023-01-15T00:23:58;99859.19;;;3.97;100.00
11349;BME280;5729;43.570;27.826;2023-01-15T00:26:42;99854.66;;;3.98;100.00
11349;BME280;5729;43.570;27.826;2023-01-15T00:29:28;99855.72;;;3.97;100.00
11349;BME280;5729;43.570;27.826;2023-01-15T00:32:05;99851.13;;;4.03;100.00
11349;BME280;5729;43.570;27.826;2023-01-15T00:34:32;99852.28;;;3.96;100.00
11349;BME280;5729;43.570;27.826;2023-01-15T00:36:58;99856.31;;;3.61;100.00
11349;BME280;5729;43.570;27.826;2023-01-15T00:39:24;99852.44;;;3.86;100.00
11349;BME280;5729;43.570;27.826;2023-01-15T00:41:50;99854.47;;;3.94;100.00
11349;BME280;5729;43.570;27.826;2023-01-15T00:44:16;99852.28;;;3.96;100.00
11349;BME280;5729;43.570;27.826;2023-01-15T00:46:41;99841.81;;;4.00;100.00
11349;BME280;5729;43.570;27.826;2023-01-15T00:49:07;99846.50;;;3.76;100.00
11349;BME280;5729;43.570;27.826;2023-01-15T00:51:33;99843.75;;;3.81;100.00
11349;BME280;5729;43.570;27.826;2023-01-15T00:53:59;99858.78;;;3.90;100.00
11349;BME280;5729;43.570;27.826;2023-01-15T00:56:24;99852.59;;;3.95;100.00
11349;BME280;5729;43.570;27.826;2023-01-15T00:58:50;99844.63;;;3.76;100.00
11349;BME280;5729;43.570;27.826;2023-01-15T01:01:15;99849.31;;;3.98;100.00
11349;BME280;5729;43.570;27.826;2023-01-15T01:03:41;99849.72;;;3.91;100.00
11349;BME280;5729;43.570;27.826;2023-01-15T01:06:07;99847.94;;;4.00;100.00
11349;BME280;5729;43.570;27.826;2023-01-15T01:08:34;99853.56;;;3.99;100.00
11349;BME280;5729;43.570;27.826;2023-01-15T01:11:01;99845.38;;;4.09;100.00
11349;BME280;5729;43.570;27.826;2023-01-15T01:13:27;99840.06;;;4.09;100.00
11349;BME280;5729;43.570;27.826;2023-01-15T01:15:53;99840.16;;;4.04;100.00
11349;BME280;5729;43.570;27.826;2023-01-15T01:18:18;99841.84;;;4.14;100.00
11349;BME280;5729;43.570;27.826;2023-01-15T01:20:43;99843.63;;;4.18;100.00
11349;BME280;5729;43.570;27.826;2023-01-15T01:23:09;99844.22;;;4.15;100.00
11349;BME280;5729;43.570;27.826;2023-01-15T01:25:34;99830.16;;;4.10;100.00
11349;BME280;5729;43.570;27.826;2023-01-15T01:28:00;99839.88;;;4.19;100.00
11349;BME280;5729;43.570;27.826;2023-01-15T01:30:25;99841.75;;;4.19;100.00
11349;BME280;5729;43.570;27.826;2023-01-15T01:32:51;99814.75;;;4.07;100.00
11349;BME280;5729;43.570;27.826;2023-01-15T01:35:16;99843.63;;;4.05;100.00
11349;BME280;5729;43.570;27.826;2023-01-15T01:37:42;99845.19;;;4.19;100.00
11349;BME280;5729;43.570;27.826;2023-01-15T01:40:08;99847.25;;;4.09;100.00
11349;BME280;5729;43.570;27.826;2023-01-15T01:42:33;99826.81;;;4.04;100.00
11349;BME280;5729;43.570;27.826;2023-01-15T01:45:17;99862.16;;;3.96;100.00
11349;BME280;5729;43.570;27.826;2023-01-15T01:47:44;99845.56;;;3.99;100.00
11349;BME280;5729;43.570;27.826;2023-01-15T01:50:11;99837.34;;;3.82;100.00
11349;BME280;5729;43.570;27.826;2023-01-15T01:52:55;99851.75;;;3.81;100.00
11349;BME280;5729;43.570;27.826;2023-01-15T01:55:23;99847.84;;;3.92;100.00
11349;BME280;5729;43.570;27.826;2023-01-15T01:57:51;99849.81;;;4.00;100.00
11349;BME280;5729;43.570;27.826;2023-01-15T02:00:18;99849.81;;;4.00;100.00
11349;BME280;5729;43.570;27.826;2023-01-15T02:02:46;99852.22;;;4.15;100.00
11349;BME280;5729;43.570;27.826;2023-01-15T02:05:26;99850.53;;;4.19;100.00
11349;BME280;5729;43.570;27.826;2023-01-15T02:07:54;99841.06;;;4.13;100.00
11349;BME280;5729;43.570;27.826;2023-01-15T02:10:20;99846.38;;;3.99;100.00
11349;BME280;5729;43.570;27.826;2023-01-15T02:12:53;99840.75;;;4.15;100.00
11349;BME280;5729;43.570;27.826;2023-01-15T02:15:27;99831.19;;;4.14;100.00
11349;BME280;5729;43.570;27.826;2023-01-15T02:18:01;99834.72;;;4.09;100.00
11349;BME280;5729;43.570;27.826;2023-01-15T02:20:50;99834.34;;;4.16;100.00
11349;BME280;5729;43.570;27.826;2023-01-15T02:28:43;99826.53;;;4.06;100.00
11349;BME280;5729;43.570;27.826;2023-01-15T02:31:20;99803.09;;;4.03;100.00
11349;BME280;5729;43.570;27.826;2023-01-15T02:33:50;99823.38;;;4.17;100.00
11349;BME280;5729;43.570;27.826;2023-01-15T02:36:18;99825.94;;;4.22;100.00
11349;BME280;5729;43.570;27.826;2023-01-15T02:38:47;99816.03;;;3.95;100.00
11349;BME280;5729;43.570;27.826;2023-01-15T02:41:16;99813.09;;;4.11;100.00
11349;BME280;5729;43.570;27.826;2023-01-15T02:43:49;99815.47;;;4.12;100.00
11349;BME280;5729;43.570;27.826;2023-01-15T02:46:16;99818.03;;;4.17;100.00
11349;BME280;5729;43.570;27.826;2023-01-15T02:48:46;99819.31;;;4.20;100.00
11349;BME280;5729;43.570;27.826;2023-01-15T02:51:16;99804.59;;;4.22;100.00
11349;BME280;5729;43.570;27.826;2023-01-15T02:53:47;99800.72;;;4.01;100.00
11349;BME280;5729;43.570;27.826;2023-01-15T02:56:17;99803.50;;;4.10;100.00
11349;BME280;5729;43.570;27.826;2023-01-15T02:58:44;99809.75;;;4.05;100.00
11349;BME280;5729;43.570;27.826;2023-01-15T03:01:15;99806.56;;;4.03;100.00
11349;BME280;5729;43.570;27.826;2023-01-15T03:03:51;99801.81;;;4.00;100.00
11349;BME280;5729;43.570;27.826;2023-01-15T03:06:37;99813.69;;;4.21;100.00
11349;BME280;5729;43.570;27.826;2023-01-15T03:09:06;99807.38;;;4.17;100.00
11349;BME280;5729;43.570;27.826;2023-01-15T03:11:38;99801.53;;;4.01;100.00
11349;BME280;5729;43.570;27.826;2023-01-15T03:14:15;99801.84;;;4.14;100.00
11349;BME280;5729;43.570;27.826;2023-01-15T03:16:58;99809.94;;;4.22;100.00
11349;BME280;5729;43.570;27.826;2023-01-15T03:19:44;99806.84;;;4.29;100.00
11349;BME280;5729;43.570;27.826;2023-01-15T03:24:48;99819.53;;;4.37;100.00
11349;BME280;5729;43.570;27.826;2023-01-15T03:27:14;99813.50;;;4.31;100.00
11349;BME280;5729;43.570;27.826;2023-01-15T03:29:50;99813.19;;;4.33;100.00
11349;BME280;5729;43.570;27.826;2023-01-15T03:32:17;99807.75;;;4.24;100.00
11349;BME280;5729;43.570;27.826;2023-01-15T03:34:49;99813.97;;;4.33;100.00
11349;BME280;5729;43.570;27.826;2023-01-15T03:37:16;99799.97;;;4.28;100.00
11349;BME280;5729;43.570;27.826;2023-01-15T03:39:42;99817.75;;;4.32;100.00
11349;BME280;5729;43.570;27.826;2023-01-15T03:42:23;99815.56;;;4.34;100.00
11349;BME280;5729;43.570;27.826;2023-01-15T03:47:28;99808.34;;;4.35;100.00
11349;BME280;5729;43.570;27.826;2023-01-15T03:50:22;99798.19;;;4.37;100.00
11349;BME280;5729;43.570;27.826;2023-01-15T03:53:17;99801.53;;;4.29;100.00
11349;BME280;5729;43.570;27.826;2023-01-15T04:00:49;99802.31;;;4.43;100.00
11349;BME280;5729;43.570;27.826;2023-01-15T04:03:17;99804.09;;;4.48;100.00
11349;BME280;5729;43.570;27.826;2023-01-15T04:05:45;99794.22;;;4.48;100.00
11349;BME280;5729;43.570;27.826;2023-01-15T04:08:12;99795.22;;;4.25;100.00
11349;BME280;5729;43.570;27.826;2023-01-15T04:10:53;99797.38;;;4.23;100.00
11349;BME280;5729;43.570;27.826;2023-01-15T04:13:18;99798.56;;;4.30;100.00
11349;BME280;5729;43.570;27.826;2023-01-15T04:15:44;99796.38;;;4.32;100.00
11349;BME280;5729;43.570;27.826;2023-01-15T04:18:09;99793.44;;;4.34;100.00
11349;BME280;5729;43.570;27.826;2023-01-15T04:20:35;99807.66;;;4.43;100.00
11349;BME280;5729;43.570;27.826;2023-01-15T04:23:01;99802.50;;;4.47;100.00
11349;BME280;5729;43.570;27.826;2023-01-15T04:25:26;99791.06;;;4.32;100.00
11349;BME280;5729;43.570;27.826;2023-01-15T04:27:55;99803.81;;;4.49;100.00
11349;BME280;5729;43.570;27.826;2023-01-15T04:30:21;99801.22;;;4.58;100.00
11349;BME280;5729;43.570;27.826;2023-01-15T04:32:50;99800.63;;;4.61;100.00
11349;BME280;5729;43.570;27.826;2023-01-15T04:35:16;99792.63;;;4.61;100.00
11349;BME280;5729;43.570;27.826;2023-01-15T04:37:42;99794.38;;;4.65;100.00
11349;BME280;5729;43.570;27.826;2023-01-15T04:40:08;99800.22;;;4.67;100.00
11349;BME280;5729;43.570;27.826;2023-01-15T04:42:34;99789.16;;;4.60;100.00
11349;BME280;5729;43.570;27.826;2023-01-15T04:45:18;99800.50;;;4.66;100.00
11349;BME280;5729;43.570;27.826;2023-01-15T04:47:44;99804.09;;;4.61;100.00
11349;BME280;5729;43.570;27.826;2023-01-15T04:50:09;99799.53;;;4.62;100.00
11349;BME280;5729;43.570;27.826;2023-01-15T04:52:36;99798.25;;;4.59;100.00
11349;BME280;5729;43.570;27.826;2023-01-15T04:55:03;99814.97;;;4.51;100.00
11349;BME280;5729;43.570;27.826;2023-01-15T04:57:28;99807.16;;;4.55;100.00
11349;BME280;5729;43.570;27.826;2023-01-15T04:59:54;99819.41;;;4.56;100.00
11349;BME280;5729;43.570;27.826;2023-01-15T05:02:19;99821.00;;;4.57;100.00
11349;BME280;5729;43.570;27.826;2023-01-15T05:04:45;99825.44;;;4.61;100.00
11349;BME280;5729;43.570;27.826;2023-01-15T05:07:10;99821.88;;;4.66;100.00
11349;BME280;5729;43.570;27.826;2023-01-15T05:09:36;99815.34;;;4.58;100.00
11349;BME280;5729;43.570;27.826;2023-01-15T05:12:01;99838.28;;;4.73;100.00
11349;BME280;5729;43.570;27.826;2023-01-15T05:14:27;99840.06;;;4.78;100.00
11349;BME280;5729;43.570;27.826;2023-01-15T05:16:52;99844.72;;;4.72;100.00
11349;BME280;5729;43.570;27.826;2023-01-15T05:19:18;99840.06;;;4.78;100.00
11349;BME280;5729;43.570;27.826;2023-01-15T05:21:44;99842.06;;;4.72;100.00
11349;BME280;5729;43.570;27.826;2023-01-15T05:24:13;99829.97;;;4.74;100.00
11349;BME280;5729;43.570;27.826;2023-01-15T05:26:39;99840.56;;;4.80;100.00
11349;BME280;5729;43.570;27.826;2023-01-15T05:29:05;99853.03;;;4.84;100.00
11349;BME280;5729;43.570;27.826;2023-01-15T05:31:31;99839.66;;;4.84;100.00
11349;BME280;5729;43.570;27.826;2023-01-15T05:33:58;99827.28;;;4.74;100.00
11349;BME280;5729;43.570;27.826;2023-01-15T05:36:27;99845.19;;;4.88;100.00
11349;BME280;5729;43.570;27.826;2023-01-15T05:38:53;99849.44;;;4.89;100.00
11349;BME280;5729;43.570;27.826;2023-01-15T05:41:20;99846.97;;;4.92;100.00
11349;BME280;5729;43.570;27.826;2023-01-15T05:44:07;99845.09;;;4.93;100.00
11349;BME280;5729;43.570;27.826;2023-01-15T05:46:34;99848.06;;;4.91;100.00
11349;BME280;5729;43.570;27.826;2023-01-15T05:49:01;99848.34;;;4.90;100.00
11349;BME280;5729;43.570;27.826;2023-01-15T05:51:27;99842.22;;;4.89;100.00
11349;BME280;5729;43.570;27.826;2023-01-15T05:53:53;99846.97;;;4.92;100.00
11349;BME280;5729;43.570;27.826;2023-01-15T05:56:18;99847.97;;;4.96;100.00
11349;BME280;5729;43.570;27.826;2023-01-15T05:58:44;99848.06;;;4.91;100.00
11349;BME280;5729;43.570;27.826;2023-01-15T06:01:10;99854.06;;;4.97;100.00
11349;BME280;5729;43.570;27.826;2023-01-15T06:03:36;99848.53;;;4.93;100.00
11349;BME280;5729;43.570;27.826;2023-01-15T06:06:02;99831.25;;;4.77;100.00
11349;BME280;5729;43.570;27.826;2023-01-15T06:08:28;99848.28;;;4.81;100.00
11349;BME280;5729;43.570;27.826;2023-01-15T06:10:54;99850.53;;;4.74;100.00
11349;BME280;5729;43.570;27.826;2023-01-15T06:13:19;99842.94;;;4.67;100.00
11349;BME280;5729;43.570;27.826;2023-01-15T06:15:45;99848.69;;;4.61;100.00
11349;BME280;5729;43.570;27.826;2023-01-15T06:18:10;99856.19;;;4.59;100.00
11349;BME280;5729;43.570;27.826;2023-01-15T06:20:37;99862.03;;;4.61;100.00
11349;BME280;5729;43.570;27.826;2023-01-15T06:23:03;99844.81;;;4.53;100.00
11349;BME280;5729;43.570;27.826;2023-01-15T06:25:32;99858.47;;;4.65;100.00
11349;BME280;5729;43.570;27.826;2023-01-15T06:28:03;99856.09;;;4.64;100.00
11349;BME280;5729;43.570;27.826;2023-01-15T06:30:29;99855.69;;;4.57;100.00
11349;BME280;5729;43.570;27.826;2023-01-15T06:32:55;99860.66;;;4.50;100.00
11349;BME280;5729;43.570;27.826;2023-01-15T06:35:20;99848.31;;;4.40;100.00
11349;BME280;5729;43.570;27.826;2023-01-15T06:37:48;99847.00;;;4.37;100.00
11349;BME280;5729;43.570;27.826;2023-01-15T06:40:13;99863.91;;;4.47;100.00
11349;BME280;5729;43.570;27.826;2023-01-15T06:42:39;99861.03;;;4.43;100.00
11349;BME280;5729;43.570;27.826;2023-01-15T06:45:22;99863.41;;;4.45;100.00
11349;BME280;5729;43.570;27.826;2023-01-15T06:48:06;99861.81;;;4.44;100.00
11349;BME280;5729;43.570;27.826;2023-01-15T06:50:32;99860.75;;;4.45;100.00
11349;BME280;5729;43.570;27.826;2023-01-15T06:52:57;99864.00;;;4.42;100.00
11349;BME280;5729;43.570;27.826;2023-01-15T06:55:22;99858.19;;;4.40;100.00
11349;BME280;5729;43.570;27.826;2023-01-15T06:57:48;99858.78;;;4.36;100.00
11349;BME280;5729;43.570;27.826;2023-01-15T07:00:14;99856.59;;;4.38;100.00
11349;BME280;5729;43.570;27.826;2023-01-15T07:02:40;99859.28;;;4.38;100.00
11349;BME280;5729;43.570;27.826;2023-01-15T07:05:06;99851.94;;;4.44;100.00
11349;BME280;5729;43.570;27.826;2023-01-15T07:07:32;99846.50;;;4.49;100.00
11349;BME280;5729;43.570;27.826;2023-01-15T07:09:58;99850.16;;;4.53;100.00
11349;BME280;5729;43.570;27.826;2023-01-15T07:12:24;99845.59;;;4.54;100.00
11349;BME280;5729;43.570;27.826;2023-01-15T07:14:49;99852.44;;;4.60;100.00
11349;BME280;5729;43.570;27.826;2023-01-15T07:17:15;99850.06;;;4.58;100.00
11349;BME280;5729;43.570;27.826;2023-01-15T07:19:41;99844.22;;;4.70;100.00
11349;BME280;5729;43.570;27.826;2023-01-15T07:22:08;99849.06;;;4.82;100.00
11349;BME280;5729;43.570;27.826;2023-01-15T07:24:34;99848.34;;;4.90;100.00
11349;BME280;5729;43.570;27.826;2023-01-15T07:26:59;99842.13;;;4.94;100.00
11349;BME280;5729;43.570;27.826;2023-01-15T07:29:25;99838.44;;;5.04;100.00
11349;BME280;5729;43.570;27.826;2023-01-15T07:31:51;99844.34;;;5.15;100.00
11349;BME280;5729;43.570;27.826;2023-01-15T07:34:16;99842.25;;;5.11;100.00
11349;BME280;5729;43.570;27.826;2023-01-15T07:36:42;99850.97;;;5.17;100.00
11349;BME280;5729;43.570;27.826;2023-01-15T07:39:09;99838.00;;;5.10;100.00
11349;BME280;5729;43.570;27.826;2023-01-15T07:41:35;99847.66;;;5.20;100.00
11349;BME280;5729;43.570;27.826;2023-01-15T07:44:20;99835.75;;;5.04;100.00
11349;BME280;5729;43.570;27.826;2023-01-15T07:47:14;99845.31;;;5.19;100.00
11349;BME280;5729;43.570;27.826;2023-01-15T07:50:00;99839.50;;;5.17;100.00
11349;BME280;5729;43.570;27.826;2023-01-15T07:52:26;99847.88;;;5.24;100.00
11349;BME280;5729;43.570;27.826;2023-01-15T07:54:51;99852.03;;;5.30;100.00
11349;BME280;5729;43.570;27.826;2023-01-15T07:57:20;99856.16;;;5.36;100.00
11349;BME280;5729;43.570;27.826;2023-01-15T07:59:46;99850.19;;;5.39;100.00
11349;BME280;5729;43.570;27.826;2023-01-15T08:02:12;99846.19;;;5.50;100.00
11349;BME280;5729;43.570;27.826;2023-01-15T08:04:38;99832.34;;;5.48;100.00
11349;BME280;5729;43.570;27.826;2023-01-15T08:07:04;99848.69;;;5.69;100.00
11349;BME280;5729;43.570;27.826;2023-01-15T08:09:30;99845.81;;;5.65;100.00
11349;BME280;5729;43.570;27.826;2023-01-15T08:11:59;99842.06;;;5.66;100.00
11349;BME280;5729;43.570;27.826;2023-01-15T08:14:43;99830.56;;;5.66;100.00
11349;BME280;5729;43.570;27.826;2023-01-15T08:17:28;99841.69;;;5.81;100.00
11349;BME280;5729;43.570;27.826;2023-01-15T08:19:53;99828.19;;;5.87;100.00
11349;BME280;5729;43.570;27.826;2023-01-15T08:22:19;99830.16;;;5.95;100.00
11349;BME280;5729;43.570;27.826;2023-01-15T08:24:44;99834.13;;;6.06;100.00
11349;BME280;5729;43.570;27.826;2023-01-15T08:27:11;99833.38;;;6.14;100.00
11349;BME280;5729;43.570;27.826;2023-01-15T08:29:38;99835.41;;;6.08;100.00
11349;BME280;5729;43.570;27.826;2023-01-15T08:32:04;99835.34;;;6.00;100.00
11349;BME280;5729;43.570;27.826;2023-01-15T08:34:29;99836.00;;;5.97;100.00
11349;BME280;5729;43.570;27.826;2023-01-15T08:36:55;99824.94;;;5.98;100.00
11349;BME280;5729;43.570;27.826;2023-01-15T08:39:27;99829.84;;;5.96;100.00
11349;BME280;5729;43.570;27.826;2023-01-15T08:41:53;99833.13;;;5.93;100.00
11349;BME280;5729;43.570;27.826;2023-01-15T08:44:18;99838.19;;;5.95;100.00
11349;BME280;5729;43.570;27.826;2023-01-15T08:46:49;99834.00;;;6.11;100.00
11349;BME280;5729;43.570;27.826;2023-01-15T08:49:15;99841.00;;;6.21;100.00
11349;BME280;5729;43.570;27.826;2023-01-15T08:51:40;99831.72;;;6.27;100.00
11349;BME280;5729;43.570;27.826;2023-01-15T08:54:05;99831.41;;;6.28;100.00
11349;BME280;5729;43.570;27.826;2023-01-15T08:56:31;99829.22;;;6.30;100.00
11349;BME280;5729;43.570;27.826;2023-01-15T08:58:56;99828.38;;;6.21;100.00
11349;BME280;5729;43.570;27.826;2023-01-15T09:01:22;99823.88;;;6.39;100.00
11349;BME280;5729;43.570;27.826;2023-01-15T09:03:47;99826.38;;;6.35;100.00
11349;BME280;5729;43.570;27.826;2023-01-15T09:06:13;99829.88;;;6.44;100.00
11349;BME280;5729;43.570;27.826;2023-01-15T09:08:39;99820.75;;;6.45;100.00
11349;BME280;5729;43.570;27.826;2023-01-15T09:11:06;99829.13;;;6.52;100.00
11349;BME280;5729;43.570;27.826;2023-01-15T09:13:35;99821.09;;;6.52;100.00
11349;BME280;5729;43.570;27.826;2023-01-15T09:16:02;99823.78;;;6.52;100.00
11349;BME280;5729;43.570;27.826;2023-01-15T09:18:29;99819.66;;;6.55;100.00
11349;BME280;5729;43.570;27.826;2023-01-15T09:20:54;99822.38;;;6.64;100.00
11349;BME280;5729;43.570;27.826;2023-01-15T09:23:20;99817.97;;;6.68;100.00
11349;BME280;5729;43.570;27.826;2023-01-15T09:26:00;99818.94;;;6.80;100.00
11349;BME280;5729;43.570;27.826;2023-01-15T09:28:29;99823.38;;;6.76;100.00
11349;BME280;5729;43.570;27.826;2023-01-15T09:30:54;99819.09;;;6.84;100.00
11349;BME280;5729;43.570;27.826;2023-01-15T09:33:19;99810.91;;;6.80;100.00
11349;BME280;5729;43.570;27.826;2023-01-15T09:35:45;99809.97;;;6.85;100.00
11349;BME280;5729;43.570;27.826;2023-01-15T09:38:16;99805.53;;;6.89;100.00
11349;BME280;5729;43.570;27.826;2023-01-15T09:40:49;99816.59;;;7.05;100.00
11349;BME280;5729;43.570;27.826;2023-01-15T09:46:07;99798.63;;;7.22;100.00
11349;BME280;5729;43.570;27.826;2023-01-15T09:56:45;99773.38;;;7.23;100.00
11349;BME280;5729;43.570;27.826;2023-01-15T09:59:36;99771.19;;;7.17;100.00
11349;BME280;5729;43.570;27.826;2023-01-15T10:04:44;99763.78;;;7.05;100.00
11349;BME280;5729;43.570;27.826;2023-01-15T10:07:24;99763.16;;;7.17;100.00
11349;BME280;5729;43.570;27.826;2023-01-15T10:10:04;99760.28;;;7.39;100.00
11349;BME280;5729;43.570;27.826;2023-01-15T10:12:31;99760.28;;;7.48;100.00
11349;BME280;5729;43.570;27.826;2023-01-15T10:17:41;99746.16;;;7.68;100.00
11349;BME280;5729;43.570;27.826;2023-01-15T10:25:27;99728.91;;;7.86;100.00
11349;BME280;5729;43.570;27.826;2023-01-15T10:27:59;99720.22;;;7.89;100.00
11349;BME280;5729;43.570;27.826;2023-01-15T10:30:40;99722.53;;;7.61;100.00
11349;BME280;5729;43.570;27.826;2023-01-15T10:35:56;99719.63;;;7.28;100.00
11349;BME280;5729;43.570;27.826;2023-01-15T10:41:25;99705.66;;;7.90;100.00
11349;BME280;5729;43.570;27.826;2023-01-15T10:44:16;99698.38;;;7.99;100.00
11349;BME280;5729;43.570;27.826;2023-01-15T10:46:50;99697.72;;;8.02;100.00
11349;BME280;5729;43.570;27.826;2023-01-15T10:49:17;99695.97;;;8.07;100.00
11349;BME280;5729;43.570;27.826;2023-01-15T10:51:48;99688.66;;;7.86;100.00
11349;BME280;5729;43.570;27.826;2023-01-15T10:54:41;99693.28;;;8.07;100.00
11349;BME280;5729;43.570;27.826;2023-01-15T10:57:23;99688.28;;;8.26;100.00
11349;BME280;5729;43.570;27.826;2023-01-15T10:59:57;99671.56;;;8.20;100.00
11349;BME280;5729;43.570;27.826;2023-01-15T11:05:18;99683.72;;;8.47;100.00
11349;BME280;5729;43.570;27.826;2023-01-15T11:07:47;99676.94;;;8.50;100.00
11349;BME280;5729;43.570;27.826;2023-01-15T11:10:15;99664.13;;;8.47;100.00
11349;BME280;5729;43.570;27.826;2023-01-15T11:12:57;99664.41;;;8.33;100.00
11349;BME280;5729;43.570;27.826;2023-01-15T11:15:47;99671.84;;;8.57;100.00
11349;BME280;5729;43.570;27.826;2023-01-15T11:18:39;99665.22;;;8.54;100.00
11349;BME280;5729;43.570;27.826;2023-01-15T11:21:24;99664.75;;;8.52;100.00
11349;BME280;5729;43.570;27.826;2023-01-15T11:23:52;99662.78;;;8.41;100.00
11349;BME280;5729;43.570;27.826;2023-01-15T11:26:26;99650.78;;;8.38;100.00
11349;BME280;5729;43.570;27.826;2023-01-15T11:28:52;99649.09;;;8.54;100.00
11349;BME280;5729;43.570;27.826;2023-01-15T11:31:19;99648.03;;;8.67;100.00
11349;BME280;5729;43.570;27.826;2023-01-15T11:34:00;99643.03;;;8.78;100.00
11349;BME280;5729;43.570;27.826;2023-01-15T11:36:27;99649.06;;;8.75;100.00
11349;BME280;5729;43.570;27.826;2023-01-15T11:38:54;99649.72;;;8.72;100.00
11349;BME280;5729;43.570;27.826;2023-01-15T11:41:28;99650.13;;;8.62;100.00
11349;BME280;5729;43.570;27.826;2023-01-15T11:44:14;99651.13;;;8.57;100.00
11349;BME280;5729;43.570;27.826;2023-01-15T11:46:58;99648.31;;;8.54;100.00
11349;BME280;5729;43.570;27.826;2023-01-15T11:49:53;99649.75;;;8.51;100.00
11349;BME280;5729;43.570;27.826;2023-01-15T11:52:51;99647.88;;;8.22;100.00
11349;BME280;5729;43.570;27.826;2023-01-15T11:55:22;99645.19;;;8.22;100.00
11349;BME280;5729;43.570;27.826;2023-01-15T11:57:49;99640.97;;;8.13;100.00
11349;BME280;5729;43.570;27.826;2023-01-15T12:00:27;99642.09;;;8.12;100.00
11349;BME280;5729;43.570;27.826;2023-01-15T12:03:04;99639.44;;;8.12;100.00
11349;BME280;5729;43.570;27.826;2023-01-15T12:05:33;99632.19;;;8.03;100.00
11349;BME280;5729;43.570;27.826;2023-01-15T12:08:16;99627.13;;;8.02;100.00
11349;BME280;5729;43.570;27.826;2023-01-15T12:10:54;99626.34;;;8.01;100.00
11349;BME280;5729;43.570;27.826;2023-01-15T12:13:43;99620.34;;;8.05;100.00
11349;BME280;5729;43.570;27.826;2023-01-15T12:19:47;99622.91;;;8.01;100.00
11349;BME280;5729;43.570;27.826;2023-01-15T12:25:13;99636.16;;;7.77;100.00
11349;BME280;5729;43.570;27.826;2023-01-15T12:27:54;99627.22;;;7.64;100.00
11349;BME280;5729;43.570;27.826;2023-01-15T12:36:24;99619.00;;;7.60;100.00
11349;BME280;5729;43.570;27.826;2023-01-15T12:39:00;99609.22;;;7.64;100.00
11349;BME280;5729;43.570;27.826;2023-01-15T12:41:37;99599.41;;;7.69;100.00
11349;BME280;5729;43.570;27.826;2023-01-15T12:47:51;99586.59;;;7.74;100.00
11349;BME280;5729;43.570;27.826;2023-01-15T12:55:32;99592.63;;;7.92;100.00
11349;BME280;5729;43.570;27.826;2023-01-15T12:58:03;99584.06;;;7.98;100.00
11349;BME280;5729;43.570;27.826;2023-01-15T13:00:34;99593.50;;;8.05;100.00
11349;BME280;5729;43.570;27.826;2023-01-15T13:05:45;99594.44;;;8.09;100.00
11349;BME280;5729;43.570;27.826;2023-01-15T13:10:51;99579.81;;;7.97;100.00
11349;BME280;5729;43.570;27.826;2023-01-15T13:13:32;99573.59;;;7.85;100.00
11349;BME280;5729;43.570;27.826;2023-01-15T13:21:50;99585.44;;;8.05;100.00
11349;BME280;5729;43.570;27.826;2023-01-15T13:27:27;99587.56;;;7.99;100.00
11349;BME280;5729;43.570;27.826;2023-01-15T13:30:05;99583.94;;;7.95;100.00
11349;BME280;5729;43.570;27.826;2023-01-15T13:32:38;99587.09;;;7.97;100.00
11349;BME280;5729;43.570;27.826;2023-01-15T13:37:41;99587.22;;;8.00;100.00
11349;BME280;5729;43.570;27.826;2023-01-15T13:40:29;99586.56;;;8.03;100.00
11349;BME280;5729;43.570;27.826;2023-01-15T13:42:57;99589.25;;;8.03;100.00
11349;BME280;5729;43.570;27.826;2023-01-15T13:45:42;99586.09;;;8.01;100.00
11349;BME280;5729;43.570;27.826;2023-01-15T13:48:44;99584.34;;;8.06;100.00
11349;BME280;5729;43.570;27.826;2023-01-15T13:51:28;99584.66;;;8.04;100.00
11349;BME280;5729;43.570;27.826;2023-01-15T13:53:56;99582.44;;;8.06;100.00
11349;BME280;5729;43.570;27.826;2023-01-15T13:56:31;99581.00;;;8.09;100.00
11349;BME280;5729;43.570;27.826;2023-01-15T13:59:02;99584.72;;;8.16;100.00
11349;BME280;5729;43.570;27.826;2023-01-15T14:06:42;99570.53;;;8.16;100.00
11349;BME280;5729;43.570;27.826;2023-01-15T14:09:25;99552.34;;;8.00;100.00
11349;BME280;5729;43.570;27.826;2023-01-15T14:11:59;99565.78;;;8.13;100.00
11349;BME280;5729;43.570;27.826;2023-01-15T14:31:59;99552.84;;;7.94;100.00
11349;BME280;5729;43.570;27.826;2023-01-15T14:34:29;99555.19;;;7.95;100.00
11349;BME280;5729;43.570;27.826;2023-01-15T14:39:50;99561.81;;;7.98;100.00
11349;BME280;5729;43.570;27.826;2023-01-15T14:45:28;99550.47;;;7.92;100.00
11349;BME280;5729;43.570;27.826;2023-01-15T14:48:05;99548.41;;;7.98;100.00
11349;BME280;5729;43.570;27.826;2023-01-15T14:50:38;99549.66;;;8.00;100.00
11349;BME280;5729;43.570;27.826;2023-01-15T15:01:14;99539.69;;;8.01;100.00
11349;BME280;5729;43.570;27.826;2023-01-15T15:03:52;99525.03;;;7.98;100.00
11349;BME280;5729;43.570;27.826;2023-01-15T15:06:19;99524.88;;;7.95;100.00
11349;BME280;5729;43.570;27.826;2023-01-15T15:08:45;99523.84;;;7.87;100.00
11349;BME280;5729;43.570;27.826;2023-01-15T15:11:23;99531.91;;;7.87;100.00
11349;BME280;5729;43.570;27.826;2023-01-15T15:14:10;99522.38;;;7.69;100.00
11349;BME280;5729;43.570;27.826;2023-01-15T15:16:42;99529.31;;;7.70;100.00
11349;BME280;5729;43.570;27.826;2023-01-15T15:19:11;99529.84;;;7.63;100.00